sensor_id;sensor_type;location;lat;lon;timestamp;temperature;humidity
25482;DHT22;13395;50.752;4.268;2023-04-24T00:00:13;10.40;99.90
25482;DHT22;13395;50.752;4.268;2023-04-24T00:02:39;10.40;99.90
25482;DHT22;13395;50.752;4.268;2023-04-24T00:05:05;10.40;99.90
25482;DHT22;13395;50.752;4.268;2023-04-24T00:07:31;10.40;99.90
25482;DHT22;13395;50.752;4.268;2023-04-24T00:09:57;10.40;99.90
25482;DHT22;13395;50.752;4.268;2023-04-24T00:12:23;10.30;99.90
25482;DHT22;13395;50.752;4.268;2023-04-24T00:14:48;10.30;99.90
25482;DHT22;13395;50.752;4.268;2023-04-24T00:17:14;10.40;99.90
25482;DHT22;13395;50.752;4.268;2023-04-24T00:19:40;10.40;99.90
25482;DHT22;13395;50.752;4.268;2023-04-24T00:22:06;10.50;99.90
25482;DHT22;13395;50.752;4.268;2023-04-24T00:24:31;10.50;99.90
25482;DHT22;13395;50.752;4.268;2023-04-24T00:26:57;10.50;99.90
25482;DHT22;13395;50.752;4.268;2023-04-24T00:29:22;10.50;99.90
25482;DHT22;13395;50.752;4.268;2023-04-24T00:31:48;10.40;99.90
25482;DHT22;13395;50.752;4.268;2023-04-24T00:34:13;10.40;99.90
25482;DHT22;13395;50.752;4.268;2023-04-24T00:36:39;10.30;99.90
25482;DHT22;13395;50.752;4.268;2023-04-24T00:39:05;10.20;99.90
25482;DHT22;13395;50.752;4.268;2023-04-24T00:41:30;10.30;99.90
25482;DHT22;13395;50.752;4.268;2023-04-24T00:43:56;10.40;99.90
25482;DHT22;13395;50.752;4.268;2023-04-24T00:46:22;10.30;99.90
25482;DHT22;13395;50.752;4.268;2023-04-24T00:48:47;10.30;99.90
25482;DHT22;13395;50.752;4.268;2023-04-24T00:51:13;10.30;99.90
25482;DHT22;13395;50.752;4.268;2023-04-24T00:53:38;10.30;99.90
25482;DHT22;13395;50.752;4.268;2023-04-24T00:56:04;10.20;99.90
25482;DHT22;13395;50.752;4.268;2023-04-24T00:58:30;10.20;99.90
25482;DHT22;13395;50.752;4.268;2023-04-24T01:00:56;10.20;99.90
25482;DHT22;13395;50.752;4.268;2023-04-24T01:03:25;9.90;99.90
25482;DHT22;13395;50.752;4.268;2023-04-24T01:05:51;9.80;99.90
25482;DHT22;13395;50.752;4.268;2023-04-24T01:08:17;9.80;99.90
25482;DHT22;13395;50.752;4.268;2023-04-24T01:10:44;9.80;99.90
25482;DHT22;13395;50.752;4.268;2023-04-24T01:13:10;9.80;99.90
25482;DHT22;13395;50.752;4.268;2023-04-24T01:15:35;9.90;99.90
25482;DHT22;13395;50.752;4.268;2023-04-24T01:18:01;9.90;99.90
25482;DHT22;13395;50.752;4.268;2023-04-24T01:20:26;9.90;99.90
25482;DHT22;13395;50.752;4.268;2023-04-24T01:22:54;10.00;99.90
25482;DHT22;13395;50.752;4.268;2023-04-24T01:25:22;9.80;99.90
25482;DHT22;13395;50.752;4.268;2023-04-24T01:27:47;9.80;99.90
25482;DHT22;13395;50.752;4.268;2023-04-24T01:30:13;9.70;99.90
25482;DHT22;13395;50.752;4.268;2023-04-24T01:32:38;9.70;99.90
25482;DHT22;13395;50.752;4.268;2023-04-24T01:35:05;9.70;99.90
25482;DHT22;13395;50.752;4.268;2023-04-24T01:37:31;9.60;99.90
25482;DHT22;13395;50.752;4.268;2023-04-24T01:39:58;9.70;99.90
25482;DHT22;13395;50.752;4.268;2023-04-24T01:42:24;9.70;99.90
25482;DHT22;13395;50.752;4.268;2023-04-24T01:44:49;9.70;99.90
25482;DHT22;13395;50.752;4.268;2023-04-24T01:47:15;9.60;99.90
25482;DHT22;13395;50.752;4.268;2023-04-24T01:49:40;9.60;99.90
25482;DHT22;13395;50.752;4.268;2023-04-24T01:52:06;9.80;99.90
25482;DHT22;13395;50.752;4.268;2023-04-24T01:54:31;9.60;99.90
25482;DHT22;13395;50.752;4.268;2023-04-24T01:56:57;9.70;99.90
25482;DHT22;13395;50.752;4.268;2023-04-24T01:59:22;9.70;99.90
25482;DHT22;13395;50.752;4.268;2023-04-24T02:01:48;9.70;99.90
25482;DHT22;13395;50.752;4.268;2023-04-24T02:04:14;9.70;99.90
25482;DHT22;13395;50.752;4.268;2023-04-24T02:06:40;9.70;99.90
25482;DHT22;13395;50.752;4.268;2023-04-24T02:09:06;9.70;99.90
25482;DHT22;13395;50.752;4.268;2023-04-24T02:11:31;9.70;99.90
25482;DHT22;13395;50.752;4.268;2023-04-24T02:13:57;9.60;99.90
25482;DHT22;13395;50.752;4.268;2023-04-24T02:16:23;9.60;99.90
25482;DHT22;13395;50.752;4.268;2023-04-24T02:18:48;9.60;99.90
25482;DHT22;13395;50.752;4.268;2023-04-24T02:21:13;9.60;99.90
25482;DHT22;13395;50.752;4.268;2023-04-24T02:23:39;9.60;99.90
25482;DHT22;13395;50.752;4.268;2023-04-24T02:26:05;9.60;99.90
25482;DHT22;13395;50.752;4.268;2023-04-24T02:28:30;9.60;99.90
25482;DHT22;13395;50.752;4.268;2023-04-24T02:30:56;9.60;99.90
25482;DHT22;13395;50.752;4.268;2023-04-24T02:33:22;9.70;99.90
25482;DHT22;13395;50.752;4.268;2023-04-24T02:35:47;9.60;99.90
25482;DHT22;13395;50.752;4.268;2023-04-24T02:38:12;9.60;99.90
25482;DHT22;13395;50.752;4.268;2023-04-24T02:40:38;9.60;99.90
25482;DHT22;13395;50.752;4.268;2023-04-24T02:43:03;9.50;99.90
25482;DHT22;13395;50.752;4.268;2023-04-24T02:45:29;9.60;99.90
25482;DHT22;13395;50.752;4.268;2023-04-24T02:47:55;9.70;99.90
25482;DHT22;13395;50.752;4.268;2023-04-24T02:50:20;9.60;99.90
25482;DHT22;13395;50.752;4.268;2023-04-24T02:52:46;9.50;99.90
25482;DHT22;13395;50.752;4.268;2023-04-24T02:55:11;9.50;99.90
25482;DHT22;13395;50.752;4.268;2023-04-24T02:57:37;9.50;99.90
25482;DHT22;13395;50.752;4.268;2023-04-24T03:00:02;9.40;99.90
25482;DHT22;13395;50.752;4.268;2023-04-24T03:02:28;9.50;99.90
25482;DHT22;13395;50.752;4.268;2023-04-24T03:04:54;9.50;99.90
25482;DHT22;13395;50.752;4.268;2023-04-24T03:07:20;9.50;99.90
25482;DHT22;13395;50.752;4.268;2023-04-24T03:09:46;9.40;99.90
25482;DHT22;13395;50.752;4.268;2023-04-24T03:12:11;9.40;99.90
25482;DHT22;13395;50.752;4.268;2023-04-24T03:14:37;9.30;99.90
25482;DHT22;13395;50.752;4.268;2023-04-24T03:17:02;9.40;99.90
25482;DHT22;13395;50.752;4.268;2023-04-24T03:19:28;9.40;99.90
25482;DHT22;13395;50.752;4.268;2023-04-24T03:21:53;9.40;99.90
25482;DHT22;13395;50.752;4.268;2023-04-24T03:24:19;9.40;99.90
25482;DHT22;13395;50.752;4.268;2023-04-24T03:26:45;9.40;99.90
25482;DHT22;13395;50.752;4.268;2023-04-24T03:29:12;9.40;99.90
25482;DHT22;13395;50.752;4.268;2023-04-24T03:31:37;9.40;99.90
25482;DHT22;13395;50.752;4.268;2023-04-24T03:34:03;9.40;99.90
25482;DHT22;13395;50.752;4.268;2023-04-24T03:36:28;9.40;99.90
25482;DHT22;13395;50.752;4.268;2023-04-24T03:38:54;9.40;99.90
25482;DHT22;13395;50.752;4.268;2023-04-24T03:41:19;9.30;99.90
25482;DHT22;13395;50.752;4.268;2023-04-24T03:43:45;9.40;99.90
25482;DHT22;13395;50.752;4.268;2023-04-24T03:46:10;9.40;99.90
25482;DHT22;13395;50.752;4.268;2023-04-24T03:48:36;9.40;99.90
25482;DHT22;13395;50.752;4.268;2023-04-24T03:51:01;9.50;99.90
25482;DHT22;13395;50.752;4.268;2023-04-24T03:53:27;9.40;99.90
25482;DHT22;13395;50.752;4.268;2023-04-24T03:55:53;9.40;99.90
25482;DHT22;13395;50.752;4.268;2023-04-24T03:58:18;9.40;99.90
25482;DHT22;13395;50.752;4.268;2023-04-24T04:00:44;9.40;99.90
25482;DHT22;13395;50.752;4.268;2023-04-24T04:03:11;9.40;99.90
25482;DHT22;13395;50.752;4.268;2023-04-24T04:05:38;9.40;99.90
25482;DHT22;13395;50.752;4.268;2023-04-24T04:08:03;9.40;99.90
25482;DHT22;13395;50.752;4.268;2023-04-24T04:10:29;9.40;99.90
25482;DHT22;13395;50.752;4.268;2023-04-24T04:12:54;9.50;99.90
25482;DHT22;13395;50.752;4.268;2023-04-24T04:15:20;9.50;99.90
25482;DHT22;13395;50.752;4.268;2023-04-24T04:17:46;9.40;99.90
25482;DHT22;13395;50.752;4.268;2023-04-24T04:20:12;9.50;99.90
25482;DHT22;13395;50.752;4.268;2023-04-24T04:22:37;9.50;99.90
25482;DHT22;13395;50.752;4.268;2023-04-24T04:25:03;9.50;99.90
25482;DHT22;13395;50.752;4.268;2023-04-24T04:27:29;9.60;99.90
25482;DHT22;13395;50.752;4.268;2023-04-24T04:29:58;9.60;99.90
25482;DHT22;13395;50.752;4.268;2023-04-24T04:32:24;9.60;99.90
25482;DHT22;13395;50.752;4.268;2023-04-24T04:34:49;9.60;99.90
25482;DHT22;13395;50.752;4.268;2023-04-24T04:37:18;9.60;99.90
25482;DHT22;13395;50.752;4.268;2023-04-24T04:39:44;9.50;99.90
25482;DHT22;13395;50.752;4.268;2023-04-24T04:42:09;9.40;99.90
25482;DHT22;13395;50.752;4.268;2023-04-24T04:44:35;9.40;99.90
25482;DHT22;13395;50.752;4.268;2023-04-24T04:47:01;9.30;99.90
25482;DHT22;13395;50.752;4.268;2023-04-24T04:49:29;9.30;99.90
25482;DHT22;13395;50.752;4.268;2023-04-24T04:51:54;9.30;99.90
25482;DHT22;13395;50.752;4.268;2023-04-24T04:54:20;9.30;99.90
25482;DHT22;13395;50.752;4.268;2023-04-24T04:56:46;9.30;99.90
25482;DHT22;13395;50.752;4.268;2023-04-24T04:59:11;9.20;99.90
25482;DHT22;13395;50.752;4.268;2023-04-24T05:01:37;9.20;99.90
25482;DHT22;13395;50.752;4.268;2023-04-24T05:04:03;9.30;99.90
25482;DHT22;13395;50.752;4.268;2023-04-24T05:06:28;9.30;99.90
25482;DHT22;13395;50.752;4.268;2023-04-24T05:08:54;9.20;99.90
25482;DHT22;13395;50.752;4.268;2023-04-24T05:11:22;9.20;99.90
25482;DHT22;13395;50.752;4.268;2023-04-24T05:13:48;9.20;99.90
25482;DHT22;13395;50.752;4.268;2023-04-24T05:16:13;9.20;99.90
25482;DHT22;13395;50.752;4.268;2023-04-24T05:18:39;9.20;99.90
25482;DHT22;13395;50.752;4.268;2023-04-24T05:21:04;9.20;99.90
25482;DHT22;13395;50.752;4.268;2023-04-24T05:23:30;9.20;99.90
25482;DHT22;13395;50.752;4.268;2023-04-24T05:25:56;9.20;99.90
25482;DHT22;13395;50.752;4.268;2023-04-24T05:28:21;9.20;99.90
25482;DHT22;13395;50.752;4.268;2023-04-24T05:30:47;9.20;99.90
25482;DHT22;13395;50.752;4.268;2023-04-24T05:33:12;9.30;99.90
25482;DHT22;13395;50.752;4.268;2023-04-24T05:35:40;9.20;99.90
25482;DHT22;13395;50.752;4.268;2023-04-24T05:38:05;9.20;99.90
25482;DHT22;13395;50.752;4.268;2023-04-24T05:40:31;9.20;99.90
25482;DHT22;13395;50.752;4.268;2023-04-24T05:42:56;9.20;99.90
25482;DHT22;13395;50.752;4.268;2023-04-24T05:45:22;9.30;99.90
25482;DHT22;13395;50.752;4.268;2023-04-24T05:47:47;9.30;99.90
25482;DHT22;13395;50.752;4.268;2023-04-24T05:50:13;9.20;99.90
25482;DHT22;13395;50.752;4.268;2023-04-24T05:52:38;9.10;99.90
25482;DHT22;13395;50.752;4.268;2023-04-24T05:55:04;9.20;99.90
25482;DHT22;13395;50.752;4.268;2023-04-24T05:57:30;9.20;99.90
25482;DHT22;13395;50.752;4.268;2023-04-24T05:59:55;9.20;99.90
25482;DHT22;13395;50.752;4.268;2023-04-24T06:02:21;9.20;99.90
25482;DHT22;13395;50.752;4.268;2023-04-24T06:04:47;9.20;99.90
25482;DHT22;13395;50.752;4.268;2023-04-24T06:07:12;9.20;99.90
25482;DHT22;13395;50.752;4.268;2023-04-24T06:09:38;9.30;99.90
25482;DHT22;13395;50.752;4.268;2023-04-24T06:12:04;9.30;99.90
25482;DHT22;13395;50.752;4.268;2023-04-24T06:14:29;9.30;99.90
25482;DHT22;13395;50.752;4.268;2023-04-24T06:16:55;9.30;99.90
25482;DHT22;13395;50.752;4.268;2023-04-24T06:19:20;9.30;99.90
25482;DHT22;13395;50.752;4.268;2023-04-24T06:21:46;9.20;99.90
25482;DHT22;13395;50.752;4.268;2023-04-24T06:24:13;9.30;99.90
25482;DHT22;13395;50.752;4.268;2023-04-24T06:26:39;9.30;99.90
25482;DHT22;13395;50.752;4.268;2023-04-24T06:29:05;9.30;99.90
25482;DHT22;13395;50.752;4.268;2023-04-24T06:31:32;9.30;99.90
25482;DHT22;13395;50.752;4.268;2023-04-24T06:34:02;9.30;99.90
25482;DHT22;13395;50.752;4.268;2023-04-24T06:36:28;9.30;99.90
25482;DHT22;13395;50.752;4.268;2023-04-24T06:38:53;9.40;99.90
25482;DHT22;13395;50.752;4.268;2023-04-24T06:41:19;9.40;99.90
25482;DHT22;13395;50.752;4.268;2023-04-24T06:43:44;9.50;99.90
25482;DHT22;13395;50.752;4.268;2023-04-24T06:46:10;9.60;99.90
25482;DHT22;13395;50.752;4.268;2023-04-24T06:48:35;9.60;99.90
25482;DHT22;13395;50.752;4.268;2023-04-24T06:51:01;9.60;99.90
25482;DHT22;13395;50.752;4.268;2023-04-24T06:53:26;9.60;99.90
25482;DHT22;13395;50.752;4.268;2023-04-24T06:55:52;9.70;99.90
25482;DHT22;13395;50.752;4.268;2023-04-24T06:58:18;9.70;99.90
25482;DHT22;13395;50.752;4.268;2023-04-24T07:00:43;9.70;99.90
25482;DHT22;13395;50.752;4.268;2023-04-24T07:03:09;9.80;99.90
25482;DHT22;13395;50.752;4.268;2023-04-24T07:05:35;9.80;99.90
25482;DHT22;13395;50.752;4.268;2023-04-24T07:08:02;9.80;99.90
25482;DHT22;13395;50.752;4.268;2023-04-24T07:10:28;9.90;99.90
25482;DHT22;13395;50.752;4.268;2023-04-24T07:12:54;10.00;99.90
25482;DHT22;13395;50.752;4.268;2023-04-24T07:15:19;10.20;99.90
25482;DHT22;13395;50.752;4.268;2023-04-24T07:17:45;10.30;99.90
25482;DHT22;13395;50.752;4.268;2023-04-24T07:20:11;10.40;99.90
25482;DHT22;13395;50.752;4.268;2023-04-24T07:22:40;10.30;99.90
25482;DHT22;13395;50.752;4.268;2023-04-24T07:25:06;10.30;99.90
25482;DHT22;13395;50.752;4.268;2023-04-24T07:27:32;10.20;99.90
25482;DHT22;13395;50.752;4.268;2023-04-24T07:29:58;10.30;99.90
25482;DHT22;13395;50.752;4.268;2023-04-24T07:32:23;10.30;99.90
25482;DHT22;13395;50.752;4.268;2023-04-24T07:34:49;10.30;99.90
25482;DHT22;13395;50.752;4.268;2023-04-24T07:37:14;10.30;99.90
25482;DHT22;13395;50.752;4.268;2023-04-24T07:39:40;10.30;99.90
25482;DHT22;13395;50.752;4.268;2023-04-24T07:42:06;10.30;99.90
25482;DHT22;13395;50.752;4.268;2023-04-24T07:44:31;10.30;99.90
25482;DHT22;13395;50.752;4.268;2023-04-24T07:46:57;10.30;99.90
25482;DHT22;13395;50.752;4.268;2023-04-24T07:49:23;10.50;99.90
25482;DHT22;13395;50.752;4.268;2023-04-24T07:51:49;10.70;99.90
25482;DHT22;13395;50.752;4.268;2023-04-24T07:54:14;11.00;99.90
25482;DHT22;13395;50.752;4.268;2023-04-24T07:56:40;11.10;99.90
25482;DHT22;13395;50.752;4.268;2023-04-24T07:59:08;11.10;99.90
25482;DHT22;13395;50.752;4.268;2023-04-24T08:01:35;10.90;99.90
25482;DHT22;13395;50.752;4.268;2023-04-24T08:04:03;10.80;99.90
25482;DHT22;13395;50.752;4.268;2023-04-24T08:06:29;10.70;99.90
25482;DHT22;13395;50.752;4.268;2023-04-24T08:08:55;10.50;99.90
25482;DHT22;13395;50.752;4.268;2023-04-24T08:11:21;10.60;99.90
25482;DHT22;13395;50.752;4.268;2023-04-24T08:13:47;10.70;99.90
25482;DHT22;13395;50.752;4.268;2023-04-24T08:16:12;10.90;99.90
25482;DHT22;13395;50.752;4.268;2023-04-24T08:18:38;11.20;99.90
25482;DHT22;13395;50.752;4.268;2023-04-24T08:21:03;11.50;99.90
25482;DHT22;13395;50.752;4.268;2023-04-24T08:23:29;11.70;99.90
25482;DHT22;13395;50.752;4.268;2023-04-24T08:25:55;11.70;99.90
25482;DHT22;13395;50.752;4.268;2023-04-24T08:28:20;11.80;99.90
25482;DHT22;13395;50.752;4.268;2023-04-24T08:30:46;12.10;99.90
25482;DHT22;13395;50.752;4.268;2023-04-24T08:33:12;13.00;99.90
25482;DHT22;13395;50.752;4.268;2023-04-24T08:35:38;13.40;99.90
25482;DHT22;13395;50.752;4.268;2023-04-24T08:38:04;13.50;99.90
25482;DHT22;13395;50.752;4.268;2023-04-24T08:40:29;13.60;99.90
25482;DHT22;13395;50.752;4.268;2023-04-24T08:42:59;13.50;99.90
25482;DHT22;13395;50.752;4.268;2023-04-24T08:45:24;13.30;99.90
25482;DHT22;13395;50.752;4.268;2023-04-24T08:47:51;13.20;99.90
25482;DHT22;13395;50.752;4.268;2023-04-24T08:50:18;13.30;99.90
25482;DHT22;13395;50.752;4.268;2023-04-24T08:52:44;13.00;99.90
25482;DHT22;13395;50.752;4.268;2023-04-24T08:55:09;13.10;99.90
25482;DHT22;13395;50.752;4.268;2023-04-24T08:57:35;13.80;99.90
25482;DHT22;13395;50.752;4.268;2023-04-24T09:00:03;15.20;99.90
25482;DHT22;13395;50.752;4.268;2023-04-24T09:02:29;15.70;99.90
25482;DHT22;13395;50.752;4.268;2023-04-24T09:04:56;15.20;99.90
25482;DHT22;13395;50.752;4.268;2023-04-24T09:07:22;14.30;99.90
25482;DHT22;13395;50.752;4.268;2023-04-24T09:09:50;13.60;99.90
25482;DHT22;13395;50.752;4.268;2023-04-24T09:12:16;13.10;99.90
25482;DHT22;13395;50.752;4.268;2023-04-24T09:14:42;12.90;99.90
25482;DHT22;13395;50.752;4.268;2023-04-24T09:17:07;12.60;99.90
25482;DHT22;13395;50.752;4.268;2023-04-24T09:19:33;12.40;99.90
25482;DHT22;13395;50.752;4.268;2023-04-24T09:21:59;12.10;99.90
25482;DHT22;13395;50.752;4.268;2023-04-24T09:24:24;11.90;99.90
25482;DHT22;13395;50.752;4.268;2023-04-24T09:26:59;12.00;99.90
25482;DHT22;13395;50.752;4.268;2023-04-24T09:29:26;12.10;99.90
25482;DHT22;13395;50.752;4.268;2023-04-24T09:31:52;12.20;99.90
25482;DHT22;13395;50.752;4.268;2023-04-24T09:34:21;12.20;99.90
25482;DHT22;13395;50.752;4.268;2023-04-24T09:36:47;12.30;99.90
25482;DHT22;13395;50.752;4.268;2023-04-24T09:39:14;12.50;99.90
25482;DHT22;13395;50.752;4.268;2023-04-24T09:41:47;12.60;99.90
25482;DHT22;13395;50.752;4.268;2023-04-24T09:44:13;13.20;99.90
25482;DHT22;13395;50.752;4.268;2023-04-24T09:46:40;13.70;99.90
25482;DHT22;13395;50.752;4.268;2023-04-24T09:49:09;13.80;99.90
25482;DHT22;13395;50.752;4.268;2023-04-24T09:51:36;13.60;99.90
25482;DHT22;13395;50.752;4.268;2023-04-24T09:54:03;13.20;99.90
25482;DHT22;13395;50.752;4.268;2023-04-24T09:56:32;12.90;99.90
25482;DHT22;13395;50.752;4.268;2023-04-24T09:59:03;13.00;99.90
25482;DHT22;13395;50.752;4.268;2023-04-24T10:01:32;13.40;99.90
25482;DHT22;13395;50.752;4.268;2023-04-24T10:03:58;13.50;99.90
25482;DHT22;13395;50.752;4.268;2023-04-24T10:06:29;13.60;99.90
25482;DHT22;13395;50.752;4.268;2023-04-24T10:08:56;13.40;99.90
25482;DHT22;13395;50.752;4.268;2023-04-24T10:11:24;13.30;99.90
25482;DHT22;13395;50.752;4.268;2023-04-24T10:13:50;13.20;99.90
25482;DHT22;13395;50.752;4.268;2023-04-24T10:16:16;13.10;99.90
25482;DHT22;13395;50.752;4.268;2023-04-24T10:18:42;13.10;99.90
25482;DHT22;13395;50.752;4.268;2023-04-24T10:21:07;13.20;99.90
25482;DHT22;13395;50.752;4.268;2023-04-24T10:23:33;13.50;99.90
25482;DHT22;13395;50.752;4.268;2023-04-24T10:25:59;13.90;99.90
25482;DHT22;13395;50.752;4.268;2023-04-24T10:28:25;14.40;99.90
25482;DHT22;13395;50.752;4.268;2023-04-24T10:30:51;14.40;99.90
25482;DHT22;13395;50.752;4.268;2023-04-24T10:33:20;14.50;99.90
25482;DHT22;13395;50.752;4.268;2023-04-24T10:35:46;14.20;99.90
25482;DHT22;13395;50.752;4.268;2023-04-24T10:38:15;13.90;99.90
25482;DHT22;13395;50.752;4.268;2023-04-24T10:40:42;13.40;99.90
25482;DHT22;13395;50.752;4.268;2023-04-24T10:43:08;13.20;99.90
25482;DHT22;13395;50.752;4.268;2023-04-24T10:45:35;12.90;99.90
25482;DHT22;13395;50.752;4.268;2023-04-24T10:48:02;12.80;99.90
25482;DHT22;13395;50.752;4.268;2023-04-24T10:53:19;12.50;99.90
25482;DHT22;13395;50.752;4.268;2023-04-24T10:55:46;12.60;99.90
25482;DHT22;13395;50.752;4.268;2023-04-24T10:58:12;12.80;99.90
25482;DHT22;13395;50.752;4.268;2023-04-24T11:00:38;13.20;99.90
25482;DHT22;13395;50.752;4.268;2023-04-24T11:03:04;13.20;99.90
25482;DHT22;13395;50.752;4.268;2023-04-24T11:05:52;13.30;99.90
25482;DHT22;13395;50.752;4.268;2023-04-24T11:08:22;13.40;99.90
25482;DHT22;13395;50.752;4.268;2023-04-24T11:11:00;13.60;99.90
25482;DHT22;13395;50.752;4.268;2023-04-24T11:13:26;13.80;99.90
25482;DHT22;13395;50.752;4.268;2023-04-24T11:18:39;13.60;99.90
25482;DHT22;13395;50.752;4.268;2023-04-24T11:21:12;13.50;99.90
25482;DHT22;13395;50.752;4.268;2023-04-24T11:23:38;13.60;99.90
25482;DHT22;13395;50.752;4.268;2023-04-24T11:26:16;13.60;99.90
25482;DHT22;13395;50.752;4.268;2023-04-24T11:28:46;13.50;99.90
25482;DHT22;13395;50.752;4.268;2023-04-24T11:33:56;13.90;99.90
25482;DHT22;13395;50.752;4.268;2023-04-24T11:36:21;14.00;99.90
25482;DHT22;13395;50.752;4.268;2023-04-24T11:38:47;13.70;99.90
25482;DHT22;13395;50.752;4.268;2023-04-24T11:41:12;13.90;99.90
25482;DHT22;13395;50.752;4.268;2023-04-24T11:43:38;14.30;99.90
25482;DHT22;13395;50.752;4.268;2023-04-24T11:46:04;14.80;99.90
25482;DHT22;13395;50.752;4.268;2023-04-24T11:48:33;15.40;99.90
25482;DHT22;13395;50.752;4.268;2023-04-24T11:51:01;15.80;99.90
25482;DHT22;13395;50.752;4.268;2023-04-24T11:53:27;17.30;99.90
25482;DHT22;13395;50.752;4.268;2023-04-24T11:55:52;18.70;99.90
25482;DHT22;13395;50.752;4.268;2023-04-24T11:58:20;19.40;99.90
25482;DHT22;13395;50.752;4.268;2023-04-24T12:00:46;19.60;99.20
25482;DHT22;13395;50.752;4.268;2023-04-24T12:03:20;18.90;98.80
25482;DHT22;13395;50.752;4.268;2023-04-24T12:05:46;18.60;98.30
25482;DHT22;13395;50.752;4.268;2023-04-24T12:08:11;18.70;98.80
25482;DHT22;13395;50.752;4.268;2023-04-24T12:10:37;19.40;98.20
25482;DHT22;13395;50.752;4.268;2023-04-24T12:13:02;19.80;96.50
25482;DHT22;13395;50.752;4.268;2023-04-24T12:15:28;20.30;96.30
25482;DHT22;13395;50.752;4.268;2023-04-24T12:17:54;20.10;95.70
25482;DHT22;13395;50.752;4.268;2023-04-24T12:20:27;19.00;96.20
25482;DHT22;13395;50.752;4.268;2023-04-24T12:22:54;19.20;97.40
25482;DHT22;13395;50.752;4.268;2023-04-24T12:25:20;20.50;95.70
25482;DHT22;13395;50.752;4.268;2023-04-24T12:27:46;21.30;93.70
25482;DHT22;13395;50.752;4.268;2023-04-24T12:30:13;20.20;93.10
25482;DHT22;13395;50.752;4.268;2023-04-24T12:32:46;19.10;94.40
25482;DHT22;13395;50.752;4.268;2023-04-24T12:35:12;19.70;95.10
25482;DHT22;13395;50.752;4.268;2023-04-24T12:37:37;19.90;93.90
25482;DHT22;13395;50.752;4.268;2023-04-24T12:40:10;19.60;94.20
25482;DHT22;13395;50.752;4.268;2023-04-24T12:42:46;19.10;94.70
25482;DHT22;13395;50.752;4.268;2023-04-24T12:45:12;18.70;95.20
25482;DHT22;13395;50.752;4.268;2023-04-24T12:47:39;18.80;96.50
25482;DHT22;13395;50.752;4.268;2023-04-24T12:50:05;18.90;95.30
25482;DHT22;13395;50.752;4.268;2023-04-24T12:52:31;19.00;95.60
25482;DHT22;13395;50.752;4.268;2023-04-24T12:54:57;18.90;95.10
25482;DHT22;13395;50.752;4.268;2023-04-24T12:57:23;18.40;95.40
25482;DHT22;13395;50.752;4.268;2023-04-24T12:59:49;17.90;96.00
25482;DHT22;13395;50.752;4.268;2023-04-24T13:02:15;17.40;97.10
25482;DHT22;13395;50.752;4.268;2023-04-24T13:04:44;17.20;97.20
25482;DHT22;13395;50.752;4.268;2023-04-24T13:07:11;17.00;96.70
25482;DHT22;13395;50.752;4.268;2023-04-24T13:09:37;16.90;97.50
25482;DHT22;13395;50.752;4.268;2023-04-24T13:12:03;16.60;97.70
25482;DHT22;13395;50.752;4.268;2023-04-24T13:14:31;16.30;98.30
25482;DHT22;13395;50.752;4.268;2023-04-24T13:16:56;16.20;99.10
25482;DHT22;13395;50.752;4.268;2023-04-24T13:19:23;16.10;98.80
25482;DHT22;13395;50.752;4.268;2023-04-24T13:21:49;15.90;99.00
25482;DHT22;13395;50.752;4.268;2023-04-24T13:24:15;15.80;99.50
25482;DHT22;13395;50.752;4.268;2023-04-24T13:26:41;16.10;99.60
25482;DHT22;13395;50.752;4.268;2023-04-24T13:29:06;16.20;98.80
25482;DHT22;13395;50.752;4.268;2023-04-24T13:31:32;16.30;98.40
25482;DHT22;13395;50.752;4.268;2023-04-24T13:33:57;16.20;98.70
25482;DHT22;13395;50.752;4.268;2023-04-24T13:36:23;16.30;99.50
25482;DHT22;13395;50.752;4.268;2023-04-24T13:38:48;16.30;99.10
25482;DHT22;13395;50.752;4.268;2023-04-24T13:41:14;16.30;99.50
25482;DHT22;13395;50.752;4.268;2023-04-24T13:43:39;16.20;99.20
25482;DHT22;13395;50.752;4.268;2023-04-24T13:46:07;15.90;99.00
25482;DHT22;13395;50.752;4.268;2023-04-24T13:48:32;15.80;99.10
25482;DHT22;13395;50.752;4.268;2023-04-24T13:50:58;15.70;99.30
25482;DHT22;13395;50.752;4.268;2023-04-24T13:53:23;15.60;99.90
25482;DHT22;13395;50.752;4.268;2023-04-24T13:55:48;15.50;99.90
25482;DHT22;13395;50.752;4.268;2023-04-24T13:58:14;15.50;99.90
25482;DHT22;13395;50.752;4.268;2023-04-24T14:00:40;15.40;99.90
25482;DHT22;13395;50.752;4.268;2023-04-24T14:03:05;15.40;99.90
25482;DHT22;13395;50.752;4.268;2023-04-24T14:05:31;15.40;99.90
25482;DHT22;13395;50.752;4.268;2023-04-24T14:07:56;15.30;99.90
25482;DHT22;13395;50.752;4.268;2023-04-24T14:10:22;15.40;99.90
25482;DHT22;13395;50.752;4.268;2023-04-24T14:12:47;15.50;99.90
25482;DHT22;13395;50.752;4.268;2023-04-24T14:15:13;15.40;99.90
25482;DHT22;13395;50.752;4.268;2023-04-24T14:17:39;15.20;99.60
25482;DHT22;13395;50.752;4.268;2023-04-24T14:20:05;15.00;99.90
25482;DHT22;13395;50.752;4.268;2023-04-24T14:22:30;14.70;99.90
25482;DHT22;13395;50.752;4.268;2023-04-24T14:24:56;14.60;99.90
25482;DHT22;13395;50.752;4.268;2023-04-24T14:27:21;14.50;99.90
25482;DHT22;13395;50.752;4.268;2023-04-24T14:29:47;14.40;99.90
25482;DHT22;13395;50.752;4.268;2023-04-24T14:32:12;14.30;99.90
25482;DHT22;13395;50.752;4.268;2023-04-24T14:34:40;14.20;99.90
25482;DHT22;13395;50.752;4.268;2023-04-24T14:37:05;14.20;99.90
25482;DHT22;13395;50.752;4.268;2023-04-24T14:39:31;14.30;99.90
25482;DHT22;13395;50.752;4.268;2023-04-24T14:41:56;14.50;99.90
25482;DHT22;13395;50.752;4.268;2023-04-24T14:44:22;14.60;99.90
25482;DHT22;13395;50.752;4.268;2023-04-24T14:46:48;14.60;99.90
25482;DHT22;13395;50.752;4.268;2023-04-24T14:49:13;14.70;99.90
25482;DHT22;13395;50.752;4.268;2023-04-24T14:51:39;14.90;99.90
25482;DHT22;13395;50.752;4.268;2023-04-24T14:54:06;15.10;99.90
25482;DHT22;13395;50.752;4.268;2023-04-24T14:56:31;15.20;99.90
25482;DHT22;13395;50.752;4.268;2023-04-24T14:58:57;15.20;99.90
25482;DHT22;13395;50.752;4.268;2023-04-24T15:01:22;15.10;99.90
25482;DHT22;13395;50.752;4.268;2023-04-24T15:03:49;15.00;99.90
25482;DHT22;13395;50.752;4.268;2023-04-24T15:06:15;14.90;99.90
25482;DHT22;13395;50.752;4.268;2023-04-24T15:08:40;14.80;99.90
25482;DHT22;13395;50.752;4.268;2023-04-24T15:11:07;14.60;99.60
25482;DHT22;13395;50.752;4.268;2023-04-24T15:13:33;14.60;99.60
25482;DHT22;13395;50.752;4.268;2023-04-24T15:15:58;14.70;99.60
25482;DHT22;13395;50.752;4.268;2023-04-24T15:18:24;14.60;99.80
25482;DHT22;13395;50.752;4.268;2023-04-24T15:20:49;14.60;99.90
25482;DHT22;13395;50.752;4.268;2023-04-24T15:23:15;14.70;99.90
25482;DHT22;13395;50.752;4.268;2023-04-24T15:25:40;14.80;99.70
25482;DHT22;13395;50.752;4.268;2023-04-24T15:28:06;14.70;99.90
25482;DHT22;13395;50.752;4.268;2023-04-24T15:30:31;14.70;99.90
25482;DHT22;13395;50.752;4.268;2023-04-24T15:32:57;14.70;99.80
25482;DHT22;13395;50.752;4.268;2023-04-24T15:35:22;14.60;99.50
25482;DHT22;13395;50.752;4.268;2023-04-24T15:37:48;14.60;99.70